Woodboro, Wisconsin
Current Conditions -  °F | °C
As of 1:53 PM on Saturday 25 Oct 2014 (Local Time) from KRHI Reporting Station
Clear Clear  
Wind Chill: 57°   Ceiling: Unl
Heat Index: 57°   Visibility: 10mi
Dew Point: 27°   Wind: 18mph
Humidity: 32%   Direction: 290°WNW
Pressure: 29.85"   Gusts: 29mph
Location:  45.6521°N, 89.3386°W
Report Text: KRHI 251853Z AUTO 29016G25KT 10SM CLR 14/M03 A2985 RMK AO2 PK WND 27028/1831 SLP110 T01391028
Loading
Personal Weather Stations






























Interactive Weather Map
Tropical Storm Tracking
New forecast layout! Learn more

10-Day Weather Forecast

Advertisements
Track Severe Weather on mobile